createdAt,value
2023-05-19T00:01:20.953Z,102284.59
2023-05-19T00:04:02.512Z,102287.34
2023-05-19T00:06:32.878Z,102288.38
2023-05-19T00:09:05.791Z,102292.94
2023-05-19T00:11:36.172Z,102290.34
2023-05-19T00:14:06.976Z,102291.28
2023-05-19T00:16:34.519Z,102289.59
2023-05-19T00:19:04.634Z,102291.47
2023-05-19T00:21:32.754Z,102290.72
2023-05-19T00:24:00.385Z,102289.09
2023-05-19T00:26:28.335Z,102292.81
2023-05-19T00:29:00.942Z,102285.69
2023-05-19T00:31:27.914Z,102285.78
2023-05-19T00:33:55.564Z,102276.09
2023-05-19T00:36:22.575Z,102271.75
2023-05-19T00:38:51.090Z,102271.00
2023-05-19T00:41:18.442Z,102266.59
2023-05-19T00:43:47.688Z,102264.97
2023-05-19T00:46:14.525Z,102261.53
2023-05-19T00:48:44.631Z,102258.97
2023-05-19T00:51:14.744Z,102259.06
2023-05-19T00:53:41.786Z,102263.75
2023-05-19T00:56:08.886Z,102260.22
2023-05-19T00:58:37.132Z,102254.03
2023-05-19T01:01:06.894Z,102251.44
2023-05-19T01:03:36.130Z,102253.31
2023-05-19T01:06:05.283Z,102259.66
2023-05-19T01:08:34.353Z,102255.19
2023-05-19T01:11:02.273Z,102262.44
2023-05-19T01:13:29.736Z,102267.00
2023-05-19T01:16:35.262Z,102266.19
2023-05-19T01:19:38.688Z,102260.91
2023-05-19T01:22:48.626Z,102263.66
2023-05-19T01:25:37.426Z,102265.56
2023-05-19T01:28:49.324Z,102267.44
2023-05-19T01:31:23.920Z,102266.63
2023-05-19T01:33:54.591Z,102259.47
2023-05-19T01:36:23.724Z,102264.03
2023-05-19T01:38:54.123Z,102263.16
2023-05-19T01:41:23.060Z,102261.47
2023-05-19T01:43:52.096Z,102259.72
2023-05-19T01:46:19.310Z,102264.28
2023-05-19T01:48:47.878Z,102258.06
2023-05-19T01:51:14.767Z,102259.84
2023-05-19T01:53:42.959Z,102254.56
2023-05-19T01:56:10.126Z,102251.00
2023-05-19T01:59:03.943Z,102244.94
2023-05-19T02:01:53.039Z,102249.50
2023-05-19T02:04:50.908Z,102255.81
2023-05-19T02:07:37.381Z,102245.16
2023-05-19T02:10:22.802Z,102240.72
2023-05-19T02:12:54.063Z,102237.06
2023-05-19T02:15:38.664Z,102237.22
2023-05-19T02:18:09.462Z,102234.44
2023-05-19T02:20:36.392Z,102234.38
2023-05-19T02:23:03.246Z,102235.34
2023-05-19T02:25:30.349Z,102236.22
2023-05-19T02:27:59.339Z,102235.34
2023-05-19T02:30:31.763Z,102238.94
2023-05-19T02:33:00.645Z,102239.00
2023-05-19T02:35:28.077Z,102232.75
2023-05-19T02:37:54.929Z,102236.38
2023-05-19T02:40:22.362Z,102227.53
2023-05-19T02:42:49.865Z,102233.78
2023-05-19T02:45:17.024Z,102226.78
2023-05-19T02:47:43.872Z,102228.59
2023-05-19T02:50:11.048Z,102219.72
2023-05-19T02:52:37.920Z,102223.47
2023-05-19T02:55:05.397Z,102216.38
2023-05-19T02:57:35.007Z,102216.44
2023-05-19T03:00:02.440Z,102221.91
2023-05-19T03:02:29.688Z,102219.28
2023-05-19T03:04:56.645Z,102219.28
2023-05-19T03:07:25.369Z,102218.50
2023-05-19T03:09:53.032Z,102213.25
2023-05-19T03:12:19.938Z,102211.47
2023-05-19T03:14:47.529Z,102216.84
2023-05-19T03:17:14.427Z,102220.50
2023-05-19T03:19:41.649Z,102220.56
2023-05-19T03:22:08.550Z,102220.66
2023-05-19T03:24:36.332Z,102221.63
2023-05-19T03:27:05.841Z,102220.78
2023-05-19T03:29:33.133Z,102224.41
2023-05-19T03:32:00.465Z,102224.41
2023-05-19T03:34:27.540Z,102221.75
2023-05-19T03:36:55.294Z,102234.28
2023-05-19T03:39:22.968Z,102228.00
2023-05-19T03:41:49.981Z,102226.25
2023-05-19T03:44:16.941Z,102232.56
2023-05-19T03:46:44.668Z,102231.63
2023-05-19T03:49:34.640Z,102233.47
2023-05-19T03:52:24.353Z,102246.00
2023-05-19T03:54:59.788Z,102241.44
2023-05-19T03:57:26.978Z,102247.75
2023-05-19T03:59:53.970Z,102243.25
2023-05-19T04:02:21.668Z,102239.63
2023-05-19T04:04:48.777Z,102244.03
2023-05-19T04:07:15.761Z,102245.72
2023-05-19T04:09:43.080Z,102243.94
2023-05-19T04:12:10.123Z,102244.78
2023-05-19T04:14:36.932Z,102242.00
2023-05-19T04:17:04.047Z,102248.06
2023-05-19T04:19:30.891Z,102244.75
2023-05-19T04:21:58.546Z,102241.53
2023-05-19T04:24:25.444Z,102244.88
2023-05-19T04:26:53.645Z,102243.31
2023-05-19T04:29:20.624Z,102243.56
2023-05-19T04:31:47.541Z,102239.84
2023-05-19T04:34:14.434Z,102242.50
2023-05-19T04:36:41.613Z,102237.13
2023-05-19T04:39:12.157Z,102241.47
2023-05-19T04:41:44.618Z,102239.44
2023-05-19T04:44:13.838Z,102242.38
2023-05-19T04:46:42.717Z,102240.09
2023-05-19T04:49:12.651Z,102234.72
2023-05-19T04:51:42.410Z,102235.44
2023-05-19T04:54:10.200Z,102238.94
2023-05-19T04:56:37.330Z,102241.78
2023-05-19T04:59:04.724Z,102241.06
2023-05-19T05:01:33.818Z,102242.09
2023-05-19T05:04:02.761Z,102242.94
2023-05-19T05:06:31.779Z,102239.19
2023-05-19T05:09:04.314Z,102238.06
2023-05-19T05:11:32.245Z,102235.06
2023-05-19T05:14:00.826Z,102243.44
2023-05-19T05:16:30.051Z,102246.78
2023-05-19T05:18:58.764Z,102249.25
2023-05-19T05:21:26.590Z,102253.75
2023-05-19T05:23:54.291Z,102247.56
2023-05-19T05:26:33.289Z,102249.34
2023-05-19T05:29:01.482Z,102249.06
2023-05-19T05:31:29.312Z,102248.38
2023-05-19T05:33:56.449Z,102250.81
2023-05-19T05:36:27.464Z,102248.13
2023-05-19T05:38:54.821Z,102252.97
2023-05-19T05:41:23.080Z,102257.56
2023-05-19T05:43:52.076Z,102257.31
2023-05-19T05:46:19.030Z,102251.91
2023-05-19T05:48:47.081Z,102254.34
2023-05-19T05:51:14.381Z,102249.56
2023-05-19T05:53:48.693Z,102248.16
2023-05-19T05:56:16.589Z,102246.75
2023-05-19T05:58:49.727Z,102246.19
2023-05-19T06:01:17.776Z,102250.09
2023-05-19T06:03:45.382Z,102255.00
2023-05-19T06:06:16.070Z,102247.38
2023-05-19T06:08:42.971Z,102252.34
2023-05-19T06:11:11.278Z,102257.03
2023-05-19T06:13:43.060Z,102257.53
2023-05-19T06:16:16.191Z,102260.56
2023-05-19T06:18:46.319Z,102262.16
2023-05-19T06:21:13.590Z,102263.69
2023-05-19T06:23:41.630Z,102259.16
2023-05-19T06:26:10.544Z,102260.44
2023-05-19T06:28:37.868Z,102264.34
2023-05-19T06:31:06.035Z,102258.25
2023-05-19T06:33:43.357Z,102265.84
2023-05-19T06:36:10.684Z,102260.16
2023-05-19T06:38:39.378Z,102268.50
2023-05-19T06:41:07.003Z,102257.72
2023-05-19T06:43:34.251Z,102261.75
2023-05-19T06:46:04.753Z,102267.28
2023-05-19T06:48:33.523Z,102266.81
2023-05-19T06:51:00.664Z,102269.53
2023-05-19T06:53:27.768Z,102265.00
2023-05-19T06:55:59.985Z,102264.38
2023-05-19T06:58:31.580Z,102262.78
2023-05-19T07:00:59.852Z,102265.19
2023-05-19T07:03:31.534Z,102265.72
2023-05-19T07:05:59.457Z,102271.59
2023-05-19T07:08:27.919Z,102271.22
2023-05-19T07:10:57.755Z,102263.44
2023-05-19T07:13:27.247Z,102265.72
2023-05-19T07:15:58.224Z,102271.69
2023-05-19T07:18:31.703Z,102276.16
2023-05-19T07:20:59.003Z,102274.97
2023-05-19T07:23:26.289Z,102279.94
2023-05-19T07:25:56.843Z,102276.16
2023-05-19T07:28:23.880Z,102274.22
2023-05-19T07:30:50.883Z,102282.22
2023-05-19T07:33:17.777Z,102281.00
2023-05-19T07:35:45.574Z,102279.84
2023-05-19T07:38:12.550Z,102279.59
2023-05-19T07:40:39.438Z,102279.31
2023-05-19T07:43:06.335Z,102279.38
2023-05-19T07:45:33.318Z,102279.28
2023-05-19T07:48:00.261Z,102284.34
2023-05-19T07:50:27.340Z,102282.13
2023-05-19T07:52:54.185Z,102271.13
2023-05-19T07:55:23.169Z,102277.56
2023-05-19T07:57:51.126Z,102270.00
2023-05-19T08:00:18.410Z,102270.72
2023-05-19T08:02:45.735Z,102281.75
2023-05-19T08:05:12.778Z,102272.09
2023-05-19T08:07:39.596Z,102271.03
2023-05-19T08:10:07.054Z,102271.91
2023-05-19T08:12:33.933Z,102263.41
2023-05-19T08:15:01.787Z,102259.63
2023-05-19T08:17:28.981Z,102259.47
2023-05-19T08:19:55.898Z,102254.31
2023-05-19T08:22:22.923Z,102248.47
2023-05-19T08:24:51.668Z,102255.28
2023-05-19T08:27:18.571Z,102242.13
2023-05-19T08:29:45.438Z,102249.38
2023-05-19T08:32:13.382Z,102242.56
2023-05-19T08:34:41.309Z,102232.00
2023-05-19T08:37:08.195Z,102233.91
2023-05-19T08:39:35.120Z,102234.34
2023-05-19T08:42:02.503Z,102235.38
2023-05-19T08:44:30.943Z,102233.31
2023-05-19T08:47:04.979Z,102230.56
2023-05-19T08:49:37.089Z,102222.78
2023-05-19T08:52:49.503Z,102222.34
2023-05-19T08:55:55.410Z,102219.00
2023-05-19T08:58:23.210Z,102219.50
2023-05-19T09:00:51.246Z,102211.38
2023-05-19T09:05:49.948Z,102210.75
2023-05-19T09:08:16.849Z,102220.66
2023-05-19T09:10:43.675Z,102212.75
2023-05-19T09:13:10.724Z,102199.78
2023-05-19T09:15:41.424Z,102205.28
2023-05-19T09:18:11.600Z,102210.97
2023-05-19T09:20:41.534Z,102197.09
2023-05-19T09:23:16.876Z,102199.66
2023-05-19T09:25:52.354Z,102193.31
2023-05-19T09:28:30.647Z,102201.28
2023-05-19T09:31:01.232Z,102193.97
2023-05-19T09:33:29.630Z,102201.84
2023-05-19T09:35:57.249Z,102191.19
2023-05-19T09:38:26.368Z,102187.78
2023-05-19T09:40:58.296Z,102187.03
2023-05-19T09:43:33.397Z,102185.53
2023-05-19T09:46:07.862Z,102186.44
2023-05-19T09:48:36.568Z,102181.72
2023-05-19T09:51:07.717Z,102198.81
2023-05-19T09:53:35.271Z,102194.72
2023-05-19T09:56:04.066Z,102193.78
2023-05-19T09:58:35.417Z,102179.63
2023-05-19T10:01:04.844Z,102185.84
2023-05-19T10:03:35.283Z,102185.41
2023-05-19T10:06:05.389Z,102184.59
2023-05-19T10:08:34.346Z,102187.59
2023-05-19T10:11:03.161Z,102187.66
2023-05-19T10:13:32.097Z,102185.25
2023-05-19T10:16:00.623Z,102195.06
2023-05-19T10:18:29.550Z,102183.53
2023-05-19T10:20:58.081Z,102192.25
2023-05-19T10:23:26.070Z,102179.28
2023-05-19T10:25:58.838Z,102179.38
2023-05-19T10:28:43.203Z,102167.41
2023-05-19T10:31:19.429Z,102169.81
2023-05-19T10:34:33.607Z,102170.66
2023-05-19T10:37:37.760Z,102161.16
2023-05-19T10:40:21.058Z,102173.88
2023-05-19T10:43:12.638Z,102158.97
2023-05-19T10:45:49.424Z,102159.97
2023-05-19T10:48:17.417Z,102152.09
2023-05-19T10:50:46.773Z,102157.22
2023-05-19T10:53:19.292Z,102162.81
2023-05-19T10:55:59.070Z,102155.91
2023-05-19T10:58:44.053Z,102162.84
2023-05-19T11:01:16.995Z,102162.53
2023-05-19T11:03:57.402Z,102159.06
2023-05-19T11:06:33.314Z,102159.25
2023-05-19T11:09:12.421Z,102152.09
2023-05-19T11:11:49.958Z,102160.53
2023-05-19T11:14:26.794Z,102157.16
2023-05-19T11:16:59.085Z,102158.72
2023-05-19T11:19:34.634Z,102146.34
2023-05-19T11:22:12.959Z,102154.91
2023-05-19T11:24:50.164Z,102141.69
2023-05-19T11:27:33.220Z,102155.25
2023-05-19T11:30:11.607Z,102149.22
2023-05-19T11:32:39.524Z,102145.16
2023-05-19T11:35:08.188Z,102148.06
2023-05-19T11:37:35.904Z,102145.25
2023-05-19T11:40:08.924Z,102126.53
2023-05-19T11:42:37.061Z,102139.25
2023-05-19T11:45:06.373Z,102146.44
2023-05-19T11:47:42.117Z,102128.59
2023-05-19T11:50:20.553Z,102120.47
2023-05-19T11:52:47.971Z,102129.81
2023-05-19T11:55:19.344Z,102132.22
2023-05-19T11:58:03.029Z,102121.84
2023-05-19T12:00:39.590Z,102127.53
2023-05-19T12:03:08.311Z,102123.97
2023-05-19T12:05:48.151Z,102123.81
2023-05-19T12:08:18.463Z,102117.97
2023-05-19T12:10:51.818Z,102110.63
2023-05-19T12:13:19.913Z,102112.38
2023-05-19T12:15:46.984Z,102109.56
2023-05-19T12:18:14.040Z,102108.19
2023-05-19T12:20:41.253Z,102107.56
2023-05-19T12:23:08.953Z,102106.91
2023-05-19T12:25:36.399Z,102108.28
2023-05-19T12:28:03.891Z,102098.94
2023-05-19T12:30:32.901Z,102090.84
2023-05-19T12:33:02.729Z,102096.84
2023-05-19T12:35:34.603Z,102087.16
2023-05-19T12:38:06.231Z,102093.41
2023-05-19T12:40:40.223Z,102102.56
2023-05-19T12:43:18.498Z,102097.66
2023-05-19T12:45:45.533Z,102093.78
2023-05-19T12:48:12.869Z,102086.78
2023-05-19T12:50:39.953Z,102093.03
2023-05-19T12:53:12.158Z,102095.03
2023-05-19T12:55:44.768Z,102088.66
2023-05-19T12:58:12.985Z,102085.91
2023-05-19T13:00:45.676Z,102076.88
2023-05-19T13:03:20.555Z,102080.25
2023-05-19T13:05:50.953Z,102076.47
2023-05-19T13:08:21.648Z,102078.16
2023-05-19T13:10:51.563Z,102072.63
2023-05-19T13:13:18.518Z,102078.53
2023-05-19T13:15:49.071Z,102064.03
2023-05-19T13:18:17.635Z,102074.03
2023-05-19T13:20:47.330Z,102075.94
2023-05-19T13:23:16.180Z,102064.88
2023-05-19T13:25:43.667Z,102072.66
2023-05-19T13:28:11.150Z,102062.56
2023-05-19T13:30:40.587Z,102061.63
2023-05-19T13:33:08.170Z,102055.97
2023-05-19T13:35:38.857Z,102060.63
2023-05-19T13:38:07.941Z,102059.34
2023-05-19T13:40:35.219Z,102050.81
2023-05-19T13:43:05.983Z,102051.59
2023-05-19T13:45:33.856Z,102044.88
2023-05-19T13:48:00.994Z,102040.78
2023-05-19T13:50:28.109Z,102035.97
2023-05-19T13:52:55.015Z,102047.75
2023-05-19T13:55:23.300Z,102053.34
2023-05-19T13:57:50.931Z,102047.97
2023-05-19T14:00:19.373Z,102046.56
2023-05-19T14:02:46.516Z,102040.84
2023-05-19T14:05:13.631Z,102037.16
2023-05-19T14:07:40.627Z,102034.88
2023-05-19T14:10:08.405Z,102042.69
2023-05-19T14:12:49.463Z,102034.41
2023-05-19T14:15:23.785Z,102034.34
2023-05-19T14:17:50.933Z,102038.22
2023-05-19T14:20:21.971Z,102035.31
2023-05-19T14:22:48.874Z,102030.84
2023-05-19T14:25:16.052Z,102026.16
2023-05-19T14:27:42.906Z,102028.34
2023-05-19T14:30:10.450Z,102030.78
2023-05-19T14:32:37.268Z,102022.56
2023-05-19T14:35:04.959Z,102028.75
2023-05-19T14:37:32.289Z,102022.75
2023-05-19T14:39:59.376Z,102033.81
2023-05-19T14:42:26.241Z,102028.59
2023-05-19T14:44:53.091Z,102030.75
2023-05-19T14:47:19.911Z,102026.91
2023-05-19T14:49:47.072Z,102023.06
2023-05-19T14:52:13.886Z,102021.94
2023-05-19T14:54:40.827Z,102020.31
2023-05-19T14:57:08.159Z,102023.06
2023-05-19T14:59:38.545Z,102020.09
2023-05-19T15:02:05.975Z,102014.78
2023-05-19T15:04:32.861Z,102007.13
2023-05-19T15:07:09.925Z,102017.59
2023-05-19T15:09:37.638Z,101999.22
2023-05-19T15:12:04.698Z,102001.03
2023-05-19T15:14:31.727Z,101998.66
2023-05-19T15:16:59.185Z,101991.44
2023-05-19T15:19:26.520Z,101993.84
2023-05-19T15:21:53.636Z,101998.00
2023-05-19T15:24:20.555Z,101989.06
2023-05-19T15:26:47.601Z,101996.13
2023-05-19T15:29:14.535Z,101992.34
2023-05-19T15:31:41.572Z,101991.31
2023-05-19T15:34:08.692Z,101989.06
2023-05-19T15:36:35.600Z,101982.84
2023-05-19T15:39:03.711Z,101985.97
2023-05-19T15:41:30.720Z,101979.41
2023-05-19T15:44:00.241Z,101977.66
2023-05-19T15:46:27.439Z,101984.91
2023-05-19T15:48:54.782Z,101979.41
2023-05-19T15:51:22.583Z,101983.13
2023-05-19T15:53:49.495Z,101983.94
2023-05-19T15:56:16.579Z,101970.50
2023-05-19T15:58:43.582Z,101975.06
2023-05-19T16:01:10.690Z,101968.91
2023-05-19T16:03:38.083Z,101978.78
2023-05-19T16:06:05.372Z,101972.25
2023-05-19T16:08:32.310Z,101964.00
2023-05-19T16:10:59.199Z,101966.28
2023-05-19T16:13:26.047Z,101971.81
2023-05-19T16:15:53.038Z,101965.59
2023-05-19T16:18:19.969Z,101960.69
2023-05-19T16:20:46.875Z,101971.91
2023-05-19T16:23:13.772Z,101960.56
2023-05-19T16:25:41.518Z,101957.09
2023-05-19T16:28:08.943Z,101958.09
2023-05-19T16:30:36.401Z,101958.09
2023-05-19T16:33:03.539Z,101954.34
2023-05-19T16:35:30.963Z,101953.81
2023-05-19T16:37:57.999Z,101960.66
2023-05-19T16:40:24.918Z,101961.19
2023-05-19T16:42:54.616Z,101953.34
2023-05-19T16:45:21.496Z,101952.28
2023-05-19T16:47:48.383Z,101950.34
2023-05-19T16:50:15.379Z,101944.88
2023-05-19T16:52:42.424Z,101948.00
2023-05-19T16:55:09.754Z,101954.28
2023-05-19T16:57:36.643Z,101949.72
2023-05-19T17:00:04.029Z,101951.81
2023-05-19T17:02:31.053Z,101949.53
2023-05-19T17:04:57.960Z,101948.09
2023-05-19T17:07:24.773Z,101942.34
2023-05-19T17:09:53.009Z,101939.78
2023-05-19T17:12:21.349Z,101939.34
2023-05-19T17:14:49.927Z,101942.34
2023-05-19T17:17:16.818Z,101931.66
2023-05-19T17:19:43.940Z,101937.72
2023-05-19T17:22:10.758Z,101941.47
2023-05-19T17:24:37.585Z,101935.28
2023-05-19T17:27:04.851Z,101932.53
2023-05-19T17:29:31.736Z,101944.94
2023-05-19T17:31:58.610Z,101937.56
2023-05-19T17:34:25.568Z,101945.81
2023-05-19T17:36:52.375Z,101939.16
2023-05-19T17:39:20.247Z,101936.28
2023-05-19T17:41:47.194Z,101948.09
2023-05-19T17:44:14.878Z,101948.34
2023-05-19T17:46:41.769Z,101947.44
2023-05-19T17:49:10.521Z,101947.66
2023-05-19T17:51:37.905Z,101944.78
2023-05-19T17:54:05.473Z,101950.50
2023-05-19T17:56:39.692Z,101953.78
2023-05-19T17:59:07.120Z,101945.56
2023-05-19T18:01:34.428Z,101943.84
2023-05-19T18:04:02.415Z,101944.13
2023-05-19T18:06:31.845Z,101940.91
2023-05-19T18:09:03.279Z,101942.22
2023-05-19T18:11:30.097Z,101950.69
2023-05-19T18:13:57.448Z,101940.88
2023-05-19T18:16:25.582Z,101940.03
2023-05-19T18:18:52.569Z,101937.81
2023-05-19T18:21:19.493Z,101944.31
2023-05-19T18:23:46.973Z,101941.97
2023-05-19T18:26:14.212Z,101945.13
2023-05-19T18:28:42.025Z,101951.13
2023-05-19T18:31:10.997Z,101955.69
2023-05-19T18:33:37.809Z,101951.03
2023-05-19T18:36:04.895Z,101946.03
2023-05-19T18:38:31.749Z,101949.56
2023-05-19T18:41:00.697Z,101946.63
2023-05-19T18:43:30.108Z,101950.16
2023-05-19T18:45:57.265Z,101956.44
2023-05-19T18:48:28.371Z,101957.22
2023-05-19T18:50:55.289Z,101965.19
2023-05-19T18:53:22.725Z,101969.44
2023-05-19T18:55:49.660Z,101968.19
2023-05-19T18:58:20.634Z,101973.44
2023-05-19T19:00:47.556Z,101975.94
2023-05-19T19:03:14.457Z,101982.94
2023-05-19T19:05:41.721Z,101976.22
2023-05-19T19:08:08.627Z,101977.69
2023-05-19T19:10:39.034Z,101979.19
2023-05-19T19:13:06.548Z,101977.94
2023-05-19T19:15:33.382Z,101984.91
2023-05-19T19:18:00.545Z,101989.00
2023-05-19T19:20:27.452Z,101981.44
2023-05-19T19:22:54.330Z,101989.13
2023-05-19T19:25:23.259Z,101990.72
2023-05-19T19:27:51.226Z,101989.56
2023-05-19T19:30:18.090Z,101993.66
2023-05-19T19:32:44.981Z,101995.25
2023-05-19T19:35:11.947Z,101992.28
2023-05-19T19:37:38.870Z,102003.66
2023-05-19T19:40:06.805Z,102004.09
2023-05-19T19:42:34.069Z,102002.84
2023-05-19T19:45:01.000Z,102007.91
2023-05-19T19:47:27.915Z,102010.97
2023-05-19T19:49:55.907Z,102009.69
2023-05-19T19:52:22.722Z,102007.44
2023-05-19T19:54:49.628Z,102015.22
2023-05-19T19:57:19.152Z,102011.09
2023-05-19T19:59:46.029Z,102013.56
2023-05-19T20:02:14.132Z,102020.34
2023-05-19T20:04:41.306Z,102019.91
2023-05-19T20:07:08.796Z,102026.59
2023-05-19T20:09:35.818Z,102026.03
2023-05-19T20:12:02.666Z,102025.50
2023-05-19T20:14:29.523Z,102027.69
2023-05-19T20:16:56.674Z,102023.47
2023-05-19T20:19:27.963Z,102020.19
2023-05-19T20:21:57.124Z,102026.88
2023-05-19T20:24:23.941Z,102026.31
2023-05-19T20:26:50.817Z,102036.63
2023-05-19T20:29:17.691Z,102030.69
2023-05-19T20:31:46.601Z,102026.53
2023-05-19T20:34:13.526Z,102029.78
2023-05-19T20:36:40.892Z,102024.81
2023-05-19T20:39:09.687Z,102026.97
2023-05-19T20:41:36.715Z,102039.19
2023-05-19T20:44:03.992Z,102026.13
2023-05-19T20:46:30.938Z,102026.56
2023-05-19T20:48:57.832Z,102030.44
2023-05-19T20:51:25.343Z,102028.94
2023-05-19T20:53:52.196Z,102027.41
2023-05-19T20:56:19.894Z,102025.88
2023-05-19T20:58:46.760Z,102035.22
2023-05-19T21:01:13.587Z,102032.06
2023-05-19T21:03:40.476Z,102034.22
2023-05-19T21:06:07.338Z,102038.25
2023-05-19T21:08:34.285Z,102034.09
2023-05-19T21:11:01.069Z,102041.59
2023-05-19T21:13:27.877Z,102035.59
2023-05-19T21:15:57.062Z,102032.31
2023-05-19T21:18:23.976Z,102037.09
2023-05-19T21:20:50.824Z,102033.75
2023-05-19T21:23:17.709Z,102033.09
2023-05-19T21:25:45.396Z,102046.16
2023-05-19T21:28:12.581Z,102043.63
2023-05-19T21:30:39.407Z,102035.66
2023-05-19T21:33:06.276Z,102045.00
2023-05-19T21:35:33.133Z,102046.97
2023-05-19T21:38:12.031Z,102040.00
2023-05-19T21:40:48.522Z,102043.66
2023-05-19T21:43:15.473Z,102042.13
2023-05-19T21:45:42.311Z,102044.94
2023-05-19T21:48:09.254Z,102042.44
2023-05-19T21:50:38.036Z,102044.28
2023-05-19T21:53:05.628Z,102049.03
2023-05-19T21:55:32.460Z,102047.41
2023-05-19T21:58:00.963Z,102046.63
2023-05-19T22:00:29.308Z,102044.88
2023-05-19T22:02:56.234Z,102040.63
2023-05-19T22:05:23.121Z,102039.84
2023-05-19T22:07:50.079Z,102042.84
2023-05-19T22:10:17.444Z,102038.50
2023-05-19T22:12:44.272Z,102048.59
2023-05-19T22:15:13.262Z,102042.59
2023-05-19T22:17:40.228Z,102040.16
2023-05-19T22:20:08.161Z,102042.19
2023-05-19T22:22:35.414Z,102052.38
2023-05-19T22:25:03.841Z,102047.03
2023-05-19T22:27:30.786Z,102053.47
2023-05-19T22:29:59.643Z,102057.13
2023-05-19T22:32:26.688Z,102056.38
2023-05-19T22:34:53.679Z,102056.38
2023-05-19T22:37:24.005Z,102050.16
2023-05-19T22:39:51.535Z,102051.16
2023-05-19T22:42:18.657Z,102050.47
2023-05-19T22:44:45.892Z,102049.78
2023-05-19T22:47:13.910Z,102055.41
2023-05-19T22:49:41.593Z,102051.91
2023-05-19T22:52:11.063Z,102047.66
2023-05-19T22:54:38.292Z,102048.63
2023-05-19T22:57:05.545Z,102047.75
2023-05-19T22:59:32.410Z,102043.38
2023-05-19T23:01:59.288Z,102047.06
2023-05-19T23:04:26.460Z,102045.13
2023-05-19T23:06:53.346Z,102036.22
2023-05-19T23:09:20.204Z,102038.84
2023-05-19T23:11:47.398Z,102036.22
2023-05-19T23:14:14.259Z,102039.88
2023-05-19T23:16:41.132Z,102035.31
2023-05-19T23:19:08.270Z,102041.72
2023-05-19T23:21:35.202Z,102028.25
2023-05-19T23:24:02.122Z,102039.88
2023-05-19T23:26:28.927Z,102034.44
2023-05-19T23:28:55.822Z,102043.59
2023-05-19T23:31:22.782Z,102043.75
2023-05-19T23:33:49.793Z,102048.25
2023-05-19T23:36:17.714Z,102039.28
2023-05-19T23:38:44.559Z,102043.94
2023-05-19T23:41:11.482Z,102038.72
2023-05-19T23:43:38.298Z,102038.91
2023-05-19T23:46:05.632Z,102038.22
2023-05-19T23:48:36.608Z,102038.28
2023-05-19T23:51:04.543Z,102037.69
2023-05-19T23:53:31.465Z,102040.50
2023-05-19T23:55:58.813Z,102038.09
2023-05-19T23:58:25.944Z,102035.53
